Saint Thomas, ND

5:07 AM CDT on May 29, 2017 (GMT -0500)
Hoople nd | | Change Station

Elev 870 ft 48.52 °N, 97.62 °W | Updated 3 minutes ago

Overcast
Overcast
50.0 °F
Feels Like 45 °F
N
14.0
Wind Variable Wind from WNW
Gusts 20.0 mph

Today
High -- | Low -- °F
--% Chance of Precip.
Yesterday
High -- | Low -- °F
Precip. -- in
Pressure 29.82 in
Visibility 9.0 miles
Clouds Mostly Cloudy 1400 ft
Mostly Cloudy 1900 ft
Overcast 2500 ft
Windchill 45 °F
Dew Point 47 °F
Humidity 89%
Rainfall 0.02 in
Snow Depth Not available.
5:33 AM 9:21 PM
Waxing Crescent, 18% visible
METAR K2C8 290955Z AUTO 33015G21KT 9SM BKN014 BKN019 OVC025 10/08 A2982 RMK AO2
Pressure 29.82 in
Visibility 9.0 miles
Clouds Mostly Cloudy 1400 ft
Mostly Cloudy 1900 ft
Overcast 2500 ft
Windchill 45 °F
Dew Point 47 °F
Humidity 89%
Rainfall 0.02 in
Snow Depth Not available.
5:33 AM 9:21 PM
Waxing Crescent, 18% visible
METAR K2C8 290955Z AUTO 33015G21KT 9SM BKN014 BKN019 OVC025 10/08 A2982 RMK AO2

Get Severe Weather Alerts

Thanks for signing up!

Be on the lookout for a verification email in your inbox.

You'll start receiving the daily forecast at 6 AM.

×

10-Day Weather Forecast

Almanac

Astronomy

May. 29, 2017 Rise Set
Actual Time
Civil Twilight
Nautical Twilight
Astronomical Twilight
Moon
Length of Visible Light
Length of Day
Tomorrow will be .
, % of the Moon is Illuminated

Today's Extremes

State Highs State Lows

Community

WunderPhotos

Category 6

Welcome to Category 6. This is the collective home for Weather Underground's featured writeups by Dr. Jeff Masters (right), Bob Henson (left), Chris Burt, and other regular contributors.

Nearby

Air Quality

  Air Quality AQ Index Pollutant
Not available.

Snow Depth

Station Depth Elevation

Earthquake Activity

City Distance Mag. Time & Date
Minimum magnitude displayed is 2.5.

Coastal Water Temperatures

Place Temperature

Stations

Nearby Weather Stations

Station Location Temp. Windchill Dew Point Humidity Wind Precip. Elev Updated Type
                   

Watches & Warnings

There are currently no watches in effect.